»·PEaware :: DCM205 KDEN-KPHX

DCM205 :: KDEN-KPHX

FLIGHT INFORMATION

Flight Status: Arrived
Operator:
DotCom
More flights by this operator :: More flights under this callsign
Pilot: Chris S. (2433)
Aircraft: AIRBUS A320
(A320)
More flights by this aircraft type
Origin: KDEN Denver Intl
United States
Destination: KPHX Phoenix Sky Harbor Intl
United States
More flights between these airports :: More routes between these airports
Route: SMMUR1 DAAYE GUP EAGUL6
File this flight plan on PilotEdge
Remarks:
Altitude:
(Current/Filed)
36,000ft
Speed:
(Current/Filed)
450kts
Departed: 01-Apr-20 07:06 PM
Arrived: 01-Apr-20 08:37 PM
Distance/Time
Traveled:
522nm/1:31
Distance/Time
To Go:
Arrived

Flight Plot

Page will automatically refresh every two minutes.

Flight plan parsing failed; only flown route is shown


Map Options




Map Legend


Flown Route
Filed Route
Departure Airport
Arrival Airport
Navaid (VOR, NDB)
Fix

Horizontal Profiles

Position Reports

Time Latitude Longitude Heading Altitude Ground
Speed
01-Apr-20 18:43 39.862919 -104.664792 90 5445ft 0kts
01-Apr-20 18:44 39.862919 -104.664792 90 5445ft 0kts
01-Apr-20 18:44 39.862919 -104.664792 90 5445ft 0kts
01-Apr-20 18:46 39.862919 -104.664792 90 5445ft 0kts
01-Apr-20 18:47 39.862919 -104.664792 90 5445ft 0kts
01-Apr-20 18:47 39.862919 -104.664792 90 5445ft 0kts
01-Apr-20 18:49 39.862919 -104.664792 90 5445ft 0kts
01-Apr-20 18:49 39.862919 -104.664792 90 5445ft 0kts
01-Apr-20 18:50 39.862919 -104.664792 90 5445ft 0kts
01-Apr-20 18:52 39.862902 -104.665124 76 5445ft 2kts
01-Apr-20 18:52 39.862509 -104.665758 8 5445ft 3kts
01-Apr-20 18:53 39.862433 -104.665771 0 5445ft 0kts
01-Apr-20 18:55 39.862433 -104.665771 0 5445ft 0kts
01-Apr-20 18:55 39.862436 -104.665771 359 5445ft 0kts
01-Apr-20 18:56 39.862610 -104.665774 358 5445ft 1kts
01-Apr-20 18:57 39.862944 -104.665779 358 5445ft 2kts
01-Apr-20 18:58 39.863053 -104.665777 357 5445ft 0kts
01-Apr-20 18:59 39.863432 -104.665800 10 5445ft 0kts
01-Apr-20 19:00 39.862582 -104.665370 172 5445ft 10kts
01-Apr-20 19:01 39.861096 -104.664103 87 5445ft 8kts
01-Apr-20 19:02 39.861108 -104.661735 90 5445ft 0kts
01-Apr-20 19:03 39.861108 -104.661733 90 5445ft 0kts
01-Apr-20 19:04 39.859443 -104.660092 175 5445ft 35kts
01-Apr-20 19:05 39.827555 -104.660644 179 5592ft 198kts
01-Apr-20 19:06 39.771021 -104.660886 181 7480ft 218kts
01-Apr-20 19:07 39.703608 -104.661881 181 8668ft 253kts
01-Apr-20 19:08 39.633887 -104.669450 205 10404ft 250kts
01-Apr-20 19:09 39.572898 -104.713291 208 12158ft 252kts
01-Apr-20 19:10 39.512952 -104.761132 214 13766ft 254kts
01-Apr-20 19:11 39.452557 -104.810382 214 15177ft 258kts
01-Apr-20 19:12 39.389800 -104.861735 214 16204ft 294kts
01-Apr-20 19:13 39.312069 -104.925104 214 17175ft 360kts
01-Apr-20 19:14 39.225321 -104.995396 214 19325ft 374kts
01-Apr-20 19:15 39.135206 -105.066694 211 21384ft 385kts
01-Apr-20 19:16 39.038068 -105.129352 210 23118ft 396kts
01-Apr-20 19:17 38.938746 -105.193691 210 24732ft 404kts
01-Apr-20 19:18 38.837177 -105.259126 210 26257ft 411kts
01-Apr-20 19:19 38.749855 -105.315214 210 27428ft 416kts
01-Apr-20 19:20 38.645412 -105.382197 210 28655ft 423kts
01-Apr-20 19:21 38.539653 -105.449697 209 29755ft 429kts
01-Apr-20 19:22 38.432486 -105.517866 209 30987ft 429kts
01-Apr-20 19:23 38.325841 -105.584112 209 32274ft 426kts
01-Apr-20 19:24 38.219268 -105.650322 209 33459ft 424kts
01-Apr-20 19:25 38.113357 -105.715728 209 34533ft 422kts
01-Apr-20 19:26 38.009264 -105.783652 219 35474ft 415kts
01-Apr-20 19:27 37.927983 -105.885655 228 35937ft 411kts
01-Apr-20 19:28 37.846957 -105.988387 228 35937ft 412kts
01-Apr-20 19:29 37.766455 -106.091109 228 35950ft 412kts
01-Apr-20 19:30 37.685603 -106.193424 228 35990ft 411kts
01-Apr-20 19:31 37.604826 -106.295545 228 35990ft 411kts
01-Apr-20 19:32 37.524022 -106.397196 228 36055ft 408kts
01-Apr-20 19:33 37.444067 -106.497705 228 36017ft 406kts
01-Apr-20 19:34 37.364017 -106.597708 228 36020ft 406kts
01-Apr-20 19:35 37.283565 -106.698028 228 36095ft 406kts
01-Apr-20 19:36 37.203330 -106.797765 228 36114ft 406kts
01-Apr-20 19:37 37.123055 -106.897215 228 36035ft 405kts
01-Apr-20 19:38 37.043111 -106.995998 228 35960ft 403kts
01-Apr-20 19:39 36.963141 -107.094405 228 35908ft 404kts
01-Apr-20 19:40 36.882999 -107.192964 228 35900ft 405kts
01-Apr-20 19:41 36.802335 -107.291494 228 35952ft 404kts
01-Apr-20 19:42 36.722223 -107.389372 228 35938ft 404kts
01-Apr-20 19:43 36.641567 -107.487355 228 35900ft 404kts
01-Apr-20 19:44 36.561066 -107.585004 228 35892ft 405kts
01-Apr-20 19:45 36.480233 -107.682765 227 35929ft 405kts
01-Apr-20 19:46 36.399403 -107.780071 227 35923ft 404kts
01-Apr-20 19:47 36.318539 -107.877339 227 35906ft 404kts
01-Apr-20 19:48 36.237611 -107.974198 227 35839ft 405kts
01-Apr-20 19:49 36.156630 -108.070929 227 35850ft 405kts
01-Apr-20 19:50 36.075259 -108.167772 227 35877ft 405kts
01-Apr-20 19:51 35.994103 -108.264197 227 35909ft 405kts
01-Apr-20 19:52 35.912646 -108.360488 227 35960ft 405kts
01-Apr-20 19:53 35.831247 -108.456492 227 35987ft 404kts
01-Apr-20 19:54 35.750242 -108.551850 227 35998ft 403kts
01-Apr-20 19:55 35.669001 -108.647113 227 35969ft 402kts
01-Apr-20 19:56 35.588012 -108.741812 227 35928ft 402kts
01-Apr-20 19:57 35.507033 -108.836177 227 35933ft 401kts
01-Apr-20 19:58 35.428948 -108.933284 230 35915ft 400kts
01-Apr-20 19:59 35.352433 -109.032489 230 35937ft 400kts
01-Apr-20 20:00 35.275874 -109.131398 230 36008ft 399kts
01-Apr-20 20:01 35.199513 -109.229630 230 36007ft 399kts
01-Apr-20 20:02 35.123019 -109.327819 230 35987ft 398kts
01-Apr-20 20:03 35.046533 -109.425742 230 35985ft 397kts
01-Apr-20 20:04 34.970371 -109.522875 230 35995ft 396kts
01-Apr-20 20:05 34.894265 -109.619824 230 35971ft 395kts
01-Apr-20 20:06 34.818110 -109.716431 230 35990ft 393kts
01-Apr-20 20:07 34.742453 -109.812890 229 35944ft 393kts
01-Apr-20 20:08 34.682798 -109.921177 247 35972ft 386kts
01-Apr-20 20:09 34.639455 -110.040893 246 35982ft 386kts
01-Apr-20 20:10 34.594842 -110.159470 246 35961ft 386kts
01-Apr-20 20:11 34.550560 -110.277659 246 35318ft 383kts
01-Apr-20 20:12 34.506245 -110.395290 246 33653ft 383kts
01-Apr-20 20:13 34.462022 -110.512251 246 31982ft 375kts
01-Apr-20 20:14 34.419515 -110.624185 246 30515ft 367kts
01-Apr-20 20:15 34.376301 -110.737763 246 28870ft 374kts
01-Apr-20 20:16 34.319742 -110.841579 228 27165ft 371kts
01-Apr-20 20:17 34.250154 -110.929546 230 25476ft 352kts
01-Apr-20 20:18 34.184725 -111.014283 229 23850ft 337kts
01-Apr-20 20:19 34.121715 -111.095415 229 22390ft 325kts
01-Apr-20 20:20 34.060777 -111.173658 229 20913ft 317kts
01-Apr-20 20:21 34.000858 -111.250406 229 19417ft 311kts
01-Apr-20 20:22 33.941874 -111.325846 229 17947ft 306kts
01-Apr-20 20:23 33.884002 -111.399843 231 16724ft 301kts
01-Apr-20 20:24 33.839083 -111.483116 240 15511ft 294kts
01-Apr-20 20:25 33.795664 -111.565760 239 14119ft 289kts
01-Apr-20 20:26 33.752853 -111.646406 239 12614ft 283kts
01-Apr-20 20:27 33.711739 -111.723495 238 11520ft 258kts
01-Apr-20 20:28 33.674301 -111.794092 238 10637ft 234kts
01-Apr-20 20:29 33.639879 -111.858996 237 10037ft 230kts
01-Apr-20 20:30 33.606049 -111.923396 241 9566ft 227kts
01-Apr-20 20:31 33.578619 -111.989624 242 7593ft 220kts
01-Apr-20 20:32 33.549336 -112.054335 231 5650ft 222kts
01-Apr-20 20:33 33.491055 -112.074210 186 3823ft 224kts
01-Apr-20 20:34 33.440520 -112.063536 113 2685ft 168kts
01-Apr-20 20:35 33.440843 -112.009857 92 1149ft 122kts
01-Apr-20 20:36 33.439980 -111.998341 177 1149ft 0kts

Navigation Log

Ident Type
Flight plan parsing failed, navigation log unavailable